createdAt,value
2023-02-27T00:03:09.947Z,97.40
2023-02-27T00:07:12.757Z,97.50
2023-02-27T00:11:15.450Z,97.50
2023-02-27T00:15:20.179Z,97.50
2023-02-27T00:19:24.252Z,97.90
2023-02-27T00:23:27.620Z,98.40
2023-02-27T00:27:30.387Z,98.40
2023-02-27T00:31:34.575Z,98.20
2023-02-27T00:35:38.704Z,98.50
2023-02-27T00:39:41.386Z,98.80
2023-02-27T00:43:44.119Z,98.40
2023-02-27T00:47:47.933Z,98.70
2023-02-27T00:51:52.888Z,98.60
2023-02-27T00:55:55.688Z,99.00
2023-02-27T00:59:58.468Z,99.20
2023-02-27T01:04:01.293Z,99.00
2023-02-27T01:08:05.763Z,99.50
2023-02-27T01:12:08.979Z,99.80
2023-02-27T01:16:11.747Z,99.90
2023-02-27T01:20:15.281Z,99.80
2023-02-27T01:24:19.791Z,99.90
2023-02-27T01:28:24.160Z,99.90
2023-02-27T01:32:27.073Z,99.90
2023-02-27T01:36:30.242Z,99.80
2023-02-27T01:40:37.966Z,99.80
2023-02-27T01:45:19.337Z,99.90
2023-02-27T01:49:26.428Z,99.90
2023-02-27T01:53:31.356Z,99.90
2023-02-27T01:57:35.782Z,99.90
2023-02-27T02:01:39.552Z,99.90
2023-02-27T02:05:43.934Z,99.90
2023-02-27T02:09:52.144Z,99.90
2023-02-27T02:13:58.703Z,99.90
2023-02-27T02:18:11.979Z,99.90
2023-02-27T02:22:46.730Z,99.90
2023-02-27T02:26:58.944Z,99.90
2023-02-27T02:31:38.363Z,99.90
2023-02-27T02:36:19.396Z,99.90
2023-02-27T02:40:35.295Z,99.90
2023-02-27T02:44:44.539Z,99.90
2023-02-27T02:48:54.803Z,99.90
2023-02-27T02:53:08.658Z,99.90
2023-02-27T02:57:17.458Z,99.90
2023-02-27T03:01:25.650Z,99.90
2023-02-27T03:05:32.841Z,99.90
2023-02-27T03:09:39.498Z,99.90
2023-02-27T03:13:51.258Z,99.90
2023-02-27T03:18:01.498Z,99.90
2023-02-27T03:22:08.345Z,99.90
2023-02-27T03:26:18.018Z,99.90
2023-02-27T03:30:30.828Z,99.90
2023-02-27T03:34:36.904Z,99.90
2023-02-27T03:38:49.305Z,99.90
2023-02-27T03:43:00.867Z,99.90
2023-02-27T03:47:15.664Z,99.90
2023-02-27T03:51:20.893Z,99.90
2023-02-27T03:55:29.742Z,99.90
2023-02-27T03:59:34.274Z,99.90
2023-02-27T04:03:44.694Z,99.90
2023-02-27T04:08:05.326Z,99.90
2023-02-27T04:12:22.657Z,99.90
2023-02-27T04:16:50.527Z,99.90
2023-02-27T04:20:57.817Z,99.90
2023-02-27T04:25:16.534Z,99.90
2023-02-27T04:29:24.204Z,99.90
2023-02-27T04:33:35.580Z,99.90
2023-02-27T04:37:49.263Z,99.90
2023-02-27T04:41:55.784Z,99.90
2023-02-27T04:46:01.537Z,99.90
2023-02-27T04:50:09.524Z,99.90
2023-02-27T04:54:17.123Z,99.90
2023-02-27T04:58:25.287Z,99.90
2023-02-27T05:02:32.671Z,99.90
2023-02-27T05:06:39.478Z,99.90
2023-02-27T05:10:50.092Z,99.90
2023-02-27T05:14:59.179Z,99.90
2023-02-27T05:19:03.447Z,99.90
2023-02-27T05:23:13.323Z,99.90
2023-02-27T05:27:26.716Z,99.90
2023-02-27T05:31:36.556Z,99.90
2023-02-27T05:35:46.679Z,99.90
2023-02-27T05:39:52.882Z,99.90
2023-02-27T05:44:02.560Z,99.90
2023-02-27T05:48:09.357Z,99.90
2023-02-27T05:52:16.429Z,99.90
2023-02-27T05:56:22.513Z,99.90
2023-02-27T06:00:31.975Z,99.90
2023-02-27T06:04:34.983Z,99.90
2023-02-27T06:08:38.473Z,99.90
2023-02-27T06:12:41.921Z,99.90
2023-02-27T06:16:46.048Z,99.90
2023-02-27T06:20:49.663Z,99.90
2023-02-27T06:24:53.151Z,99.90
2023-02-27T06:28:55.902Z,99.90
2023-02-27T06:33:01.013Z,99.90
2023-02-27T06:37:04.400Z,99.90
2023-02-27T06:41:07.384Z,99.90
2023-02-27T06:45:12.001Z,99.90
2023-02-27T06:49:16.248Z,99.90
2023-02-27T06:53:18.997Z,99.90
2023-02-27T06:57:21.911Z,99.90
2023-02-27T07:01:24.898Z,99.90
2023-02-27T07:05:28.991Z,99.90
2023-02-27T07:09:31.932Z,99.90
2023-02-27T07:13:34.954Z,99.90
2023-02-27T07:17:37.884Z,99.90
2023-02-27T07:21:42.048Z,99.90
2023-02-27T07:46:03.962Z,99.90
2023-02-27T07:50:07.492Z,99.90
2023-02-27T07:54:11.809Z,99.90
2023-02-27T07:58:14.615Z,99.90
2023-02-27T08:02:17.379Z,99.90
2023-02-27T08:06:20.225Z,99.80
2023-02-27T08:10:24.907Z,97.60
2023-02-27T08:14:27.628Z,97.00
2023-02-27T08:18:30.374Z,95.00
2023-02-27T08:22:33.425Z,94.40
2023-02-27T08:26:37.584Z,92.10
2023-02-27T08:30:40.352Z,92.10
2023-02-27T08:34:43.094Z,92.80
2023-02-27T08:38:45.954Z,93.10
2023-02-27T08:42:51.585Z,93.60
2023-02-27T08:46:54.352Z,93.10
2023-02-27T08:50:58.015Z,93.30
2023-02-27T08:55:00.825Z,93.20
2023-02-27T08:59:05.070Z,93.10
2023-02-27T09:03:07.911Z,92.80
2023-02-27T09:07:10.726Z,92.70
2023-02-27T09:11:13.502Z,92.80
2023-02-27T09:15:17.866Z,92.90
2023-02-27T09:19:20.888Z,91.90
2023-02-27T09:23:23.785Z,90.00
2023-02-27T09:27:28.928Z,89.30
2023-02-27T09:31:33.861Z,88.70
2023-02-27T09:35:36.835Z,84.50
2023-02-27T09:39:39.604Z,83.70
2023-02-27T09:43:46.917Z,82.10
2023-02-27T09:47:53.908Z,79.30
2023-02-27T09:51:56.656Z,78.80
2023-02-27T09:56:07.938Z,76.30
2023-02-27T10:00:23.101Z,74.90
2023-02-27T10:04:33.891Z,78.20
2023-02-27T10:08:43.839Z,78.30
2023-02-27T10:12:55.896Z,77.10
2023-02-27T10:17:00.518Z,77.20
2023-02-27T10:21:08.495Z,73.30
2023-02-27T10:25:30.388Z,74.90
2023-02-27T10:29:36.639Z,76.40
2023-02-27T10:33:42.780Z,78.20
2023-02-27T10:37:51.006Z,79.70
2023-02-27T10:41:53.898Z,80.80
2023-02-27T10:45:56.904Z,80.40
2023-02-27T10:50:00.345Z,79.50
2023-02-27T10:54:23.427Z,80.00
2023-02-27T10:58:27.295Z,80.60
2023-02-27T11:02:37.010Z,79.10
2023-02-27T11:06:41.111Z,77.90
2023-02-27T11:10:57.787Z,77.70
2023-02-27T11:15:02.256Z,75.70
2023-02-27T11:19:25.644Z,74.50
2023-02-27T11:23:29.342Z,73.70
2023-02-27T11:27:33.488Z,74.30
2023-02-27T11:31:38.009Z,73.00
2023-02-27T11:35:41.021Z,72.40
2023-02-27T11:39:51.484Z,73.60
2023-02-27T11:43:56.163Z,74.30
2023-02-27T11:48:02.793Z,75.20
2023-02-27T11:52:12.957Z,75.30
2023-02-27T11:56:20.711Z,74.60
2023-02-27T12:00:30.864Z,74.30
2023-02-27T12:04:44.115Z,72.40
2023-02-27T12:08:54.281Z,72.50
2023-02-27T12:13:01.001Z,73.20
2023-02-27T12:17:13.807Z,72.60
2023-02-27T12:21:20.374Z,68.60
2023-02-27T12:25:38.603Z,68.70
2023-02-27T12:29:45.157Z,66.70
2023-02-27T12:33:56.032Z,67.20
2023-02-27T12:37:59.165Z,67.70
2023-02-27T12:42:39.681Z,67.00
2023-02-27T12:46:50.941Z,67.50
2023-02-27T12:51:05.846Z,69.00
2023-02-27T12:55:14.457Z,69.90
2023-02-27T12:59:40.917Z,70.00
2023-02-27T13:03:51.770Z,70.20
2023-02-27T13:08:04.487Z,68.10
2023-02-27T13:12:17.002Z,68.00
2023-02-27T13:16:24.192Z,69.20
2023-02-27T13:20:33.404Z,67.50
2023-02-27T13:24:48.377Z,65.80
2023-02-27T13:28:52.467Z,64.60
2023-02-27T13:33:02.296Z,64.80
2023-02-27T13:37:07.065Z,65.60
2023-02-27T13:41:39.215Z,66.20
2023-02-27T13:45:55.010Z,66.80
2023-02-27T13:49:58.396Z,68.10
2023-02-27T13:54:15.934Z,68.20
2023-02-27T13:58:24.629Z,66.20
2023-02-27T14:02:38.679Z,68.90
2023-02-27T14:06:46.180Z,67.60
2023-02-27T14:10:57.618Z,65.50
2023-02-27T14:15:03.061Z,64.90
2023-02-27T14:19:28.739Z,66.20
2023-02-27T14:23:31.900Z,65.40
2023-02-27T14:27:47.557Z,65.60
2023-02-27T14:31:52.574Z,63.70
2023-02-27T14:36:02.040Z,63.60
2023-02-27T14:40:07.052Z,63.50
2023-02-27T14:44:19.954Z,63.70
2023-02-27T14:48:28.799Z,63.80
2023-02-27T14:52:33.652Z,62.90
2023-02-27T14:56:36.392Z,63.90
2023-02-27T15:00:41.764Z,63.20
2023-02-27T15:04:55.778Z,64.00
2023-02-27T15:08:59.084Z,65.60
2023-02-27T15:13:03.532Z,66.10
2023-02-27T15:17:16.963Z,65.50
2023-02-27T15:21:24.123Z,64.90
2023-02-27T15:25:29.239Z,65.50
2023-02-27T15:29:35.732Z,65.80
2023-02-27T15:33:38.592Z,66.10
2023-02-27T15:37:48.132Z,67.10
2023-02-27T15:41:53.023Z,65.60
2023-02-27T15:45:58.104Z,65.00
2023-02-27T15:50:07.737Z,66.30
2023-02-27T15:54:12.592Z,59.80
2023-02-27T15:58:24.297Z,61.00
2023-02-27T16:02:30.783Z,60.00
2023-02-27T16:06:35.508Z,59.60
2023-02-27T16:10:45.569Z,59.60
2023-02-27T16:14:48.508Z,60.00
2023-02-27T16:18:53.820Z,61.20
2023-02-27T16:23:04.066Z,62.80
2023-02-27T16:27:17.189Z,64.60
2023-02-27T16:31:26.195Z,66.30
2023-02-27T16:35:29.933Z,66.90
2023-02-27T16:39:33.510Z,67.40
2023-02-27T16:43:38.445Z,67.30
2023-02-27T16:47:41.513Z,67.90
2023-02-27T16:51:44.269Z,67.90
2023-02-27T16:55:48.021Z,68.40
2023-02-27T16:59:52.177Z,69.30
2023-02-27T17:03:55.090Z,69.30
2023-02-27T17:07:58.221Z,69.40
2023-02-27T17:12:01.011Z,70.10
2023-02-27T17:16:05.895Z,70.40
2023-02-27T17:20:14.721Z,71.10
2023-02-27T17:24:17.702Z,71.40
2023-02-27T17:28:20.749Z,71.80
2023-02-27T17:32:24.895Z,72.20
2023-02-27T17:36:28.207Z,72.80
2023-02-27T17:40:36.869Z,73.30
2023-02-27T17:44:45.072Z,74.10
2023-02-27T17:49:00.719Z,74.50
2023-02-27T17:53:03.690Z,75.00
2023-02-27T17:57:10.332Z,75.20
2023-02-27T18:01:16.842Z,75.60
2023-02-27T18:05:21.850Z,75.90
2023-02-27T18:09:24.597Z,76.60
2023-02-27T18:13:28.379Z,77.30
2023-02-27T18:17:31.159Z,78.40
2023-02-27T18:21:36.291Z,79.10
2023-02-27T18:25:39.121Z,79.50
2023-02-27T18:29:43.752Z,80.30
2023-02-27T18:33:46.687Z,81.00
2023-02-27T18:37:50.874Z,81.20
2023-02-27T18:41:53.789Z,81.80
2023-02-27T18:45:56.761Z,82.10
2023-02-27T18:50:00.154Z,83.20
2023-02-27T18:54:06.937Z,82.90
2023-02-27T18:58:10.028Z,83.20
2023-02-27T19:02:15.156Z,83.90
2023-02-27T19:06:18.479Z,84.10
2023-02-27T19:10:23.247Z,84.50
2023-02-27T19:14:27.014Z,84.60
2023-02-27T19:18:34.624Z,85.20
2023-02-27T19:22:38.736Z,85.70
2023-02-27T19:26:43.348Z,86.50
2023-02-27T19:30:55.307Z,86.40
2023-02-27T19:34:58.073Z,86.50
2023-02-27T19:39:01.549Z,87.40
2023-02-27T19:43:05.842Z,88.00
2023-02-27T19:47:08.681Z,88.30
2023-02-27T19:51:13.792Z,88.60
2023-02-27T19:55:16.875Z,89.10
2023-02-27T19:59:24.681Z,89.50
2023-02-27T20:03:29.268Z,90.00
2023-02-27T20:07:32.045Z,90.40
2023-02-27T20:11:46.094Z,90.40
2023-02-27T20:15:57.685Z,90.60
2023-02-27T20:20:05.761Z,90.70
2023-02-27T20:24:10.232Z,90.70
2023-02-27T20:28:13.755Z,90.60
2023-02-27T20:32:19.040Z,90.80
2023-02-27T20:36:22.090Z,90.90
2023-02-27T20:40:28.585Z,90.80
2023-02-27T20:44:31.349Z,90.70
2023-02-27T20:48:59.321Z,90.80
2023-02-27T20:53:02.108Z,90.50
2023-02-27T20:57:05.084Z,90.40
2023-02-27T21:01:19.536Z,89.70
2023-02-27T21:05:23.642Z,89.20
2023-02-27T21:09:26.598Z,88.70
2023-02-27T21:13:36.862Z,88.90
2023-02-27T21:17:39.668Z,89.00
2023-02-27T21:21:43.773Z,89.40
2023-02-27T21:25:48.163Z,89.50
2023-02-27T21:29:54.219Z,89.90
2023-02-27T21:33:57.015Z,90.00
2023-02-27T21:38:01.081Z,90.10
2023-02-27T21:42:03.870Z,90.20
2023-02-27T21:46:14.320Z,90.30
2023-02-27T21:50:21.751Z,90.40
2023-02-27T21:54:30.977Z,90.50
2023-02-27T21:58:34.003Z,90.30
2023-02-27T22:02:38.249Z,90.20
2023-02-27T22:06:49.486Z,90.00
2023-02-27T22:10:57.055Z,90.10
2023-02-27T22:15:05.879Z,90.00
2023-02-27T22:19:09.517Z,89.80
2023-02-27T22:23:12.722Z,90.10
2023-02-27T22:27:23.461Z,90.20
2023-02-27T22:31:28.686Z,90.10
2023-02-27T22:35:33.704Z,90.20
2023-02-27T22:39:36.825Z,90.50
2023-02-27T22:43:41.055Z,91.00
2023-02-27T22:47:43.779Z,91.10
2023-02-27T22:51:50.759Z,91.50
2023-02-27T22:55:55.201Z,91.70
2023-02-27T22:59:59.301Z,92.30
2023-02-27T23:04:04.313Z,92.60
2023-02-27T23:08:07.330Z,93.00
2023-02-27T23:12:10.057Z,93.10
2023-02-27T23:16:14.332Z,93.00
2023-02-27T23:20:17.790Z,93.40
2023-02-27T23:24:20.948Z,93.60
2023-02-27T23:28:23.738Z,93.50
2023-02-27T23:32:27.952Z,93.70
2023-02-27T23:36:31.275Z,93.80
2023-02-27T23:40:34.011Z,93.80
2023-02-27T23:44:36.786Z,94.10
2023-02-27T23:48:41.665Z,94.00
2023-02-27T23:52:45.891Z,94.20
2023-02-27T23:56:49.267Z,94.40
